Terminal Aerodrome Forecast
Issued by NWS

Home | Current Version | Previous Version | Text Only | Print | Product List | Glossary On
Versions: 1 2 3 4 5 6 7 8 9 10 11 12 13 14 15 16 17 18 19 20 21 22 23 24 25
000
FTUS43 KDLH 300500
TAFHIB
TAF
KHIB 300535Z 3006/3106 29004KT P6SM FEW050
     FM300900 30003KT 6SM BR FEW040
      TEMPO 3010/3013 3SM BR
     FM301800 19004KT P6SM VCSH SCT020 OVC050
      TEMPO 3019/3022 6SM -SHRA BKN025 OVC040
     FM302200 VRB03KT 6SM -RA BR BKN020 OVC040=

USA.gov is the U.S. government's official web portal to all federal, state and local government web resources and services.